sensor_id;sensor_type;location;lat;lon;timestamp;P1;durP1;ratioP1;P2;durP2;ratioP2
19278;SDS011;9773;47.062;15.446;2023-09-12T00:01:18;11.63;;;10.63;;
19278;SDS011;9773;47.062;15.446;2023-09-12T00:03:44;11.63;;;10.53;;
19278;SDS011;9773;47.062;15.446;2023-09-12T00:06:10;13.37;;;9.80;;
19278;SDS011;9773;47.062;15.446;2023-09-12T00:08:35;11.70;;;10.57;;
19278;SDS011;9773;47.062;15.446;2023-09-12T00:11:04;10.80;;;9.90;;
19278;SDS011;9773;47.062;15.446;2023-09-12T00:13:38;10.63;;;9.73;;
19278;SDS011;9773;47.062;15.446;2023-09-12T00:16:05;10.90;;;9.80;;
19278;SDS011;9773;47.062;15.446;2023-09-12T00:18:39;11.40;;;10.40;;
19278;SDS011;9773;47.062;15.446;2023-09-12T00:21:05;11.13;;;10.13;;
19278;SDS011;9773;47.062;15.446;2023-09-12T00:23:31;13.70;;;10.27;;
19278;SDS011;9773;47.062;15.446;2023-09-12T00:25:57;11.57;;;10.57;;
19278;SDS011;9773;47.062;15.446;2023-09-12T00:28:23;11.53;;;10.47;;
19278;SDS011;9773;47.062;15.446;2023-09-12T00:30:49;11.57;;;10.57;;
19278;SDS011;9773;47.062;15.446;2023-09-12T00:33:16;11.43;;;10.37;;
19278;SDS011;9773;47.062;15.446;2023-09-12T00:35:43;11.73;;;10.63;;
19278;SDS011;9773;47.062;15.446;2023-09-12T00:38:09;11.27;;;10.17;;
19278;SDS011;9773;47.062;15.446;2023-09-12T00:40:35;11.50;;;10.43;;
19278;SDS011;9773;47.062;15.446;2023-09-12T00:43:03;11.50;;;10.50;;
19278;SDS011;9773;47.062;15.446;2023-09-12T00:45:30;10.90;;;9.90;;
19278;SDS011;9773;47.062;15.446;2023-09-12T00:47:56;11.23;;;10.33;;
19278;SDS011;9773;47.062;15.446;2023-09-12T00:50:25;12.07;;;10.90;;
19278;SDS011;9773;47.062;15.446;2023-09-12T00:52:52;11.73;;;10.63;;
19278;SDS011;9773;47.062;15.446;2023-09-12T00:55:19;12.23;;;11.00;;
19278;SDS011;9773;47.062;15.446;2023-09-12T00:57:45;13.00;;;11.87;;
19278;SDS011;9773;47.062;15.446;2023-09-12T01:00:13;12.80;;;11.70;;
19278;SDS011;9773;47.062;15.446;2023-09-12T01:02:39;12.00;;;10.97;;
19278;SDS011;9773;47.062;15.446;2023-09-12T01:05:11;12.37;;;11.23;;
19278;SDS011;9773;47.062;15.446;2023-09-12T01:07:38;12.70;;;11.60;;
19278;SDS011;9773;47.062;15.446;2023-09-12T01:10:05;12.57;;;11.53;;
19278;SDS011;9773;47.062;15.446;2023-09-12T01:12:32;12.33;;;11.33;;
19278;SDS011;9773;47.062;15.446;2023-09-12T01:14:58;12.20;;;11.07;;
19278;SDS011;9773;47.062;15.446;2023-09-12T01:17:24;12.53;;;11.33;;
19278;SDS011;9773;47.062;15.446;2023-09-12T01:19:50;13.03;;;11.83;;
19278;SDS011;9773;47.062;15.446;2023-09-12T01:28:34;12.53;;;11.47;;
19278;SDS011;9773;47.062;15.446;2023-09-12T01:31:04;12.13;;;11.13;;
19278;SDS011;9773;47.062;15.446;2023-09-12T01:33:30;13.63;;;12.43;;
19278;SDS011;9773;47.062;15.446;2023-09-12T01:35:57;13.80;;;12.60;;
19278;SDS011;9773;47.062;15.446;2023-09-12T01:38:22;13.43;;;12.10;;
19278;SDS011;9773;47.062;15.446;2023-09-12T01:40:50;13.57;;;12.40;;
19278;SDS011;9773;47.062;15.446;2023-09-12T01:43:19;15.50;;;13.20;;
19278;SDS011;9773;47.062;15.446;2023-09-12T01:45:47;13.90;;;12.60;;
19278;SDS011;9773;47.062;15.446;2023-09-12T01:48:18;14.23;;;12.93;;
19278;SDS011;9773;47.062;15.446;2023-09-12T01:50:46;13.80;;;12.60;;
19278;SDS011;9773;47.062;15.446;2023-09-12T01:53:12;14.30;;;13.00;;
19278;SDS011;9773;47.062;15.446;2023-09-12T01:55:39;13.80;;;12.47;;
19278;SDS011;9773;47.062;15.446;2023-09-12T01:58:10;14.03;;;12.70;;
19278;SDS011;9773;47.062;15.446;2023-09-12T02:00:37;14.37;;;12.97;;
19278;SDS011;9773;47.062;15.446;2023-09-12T02:03:03;13.60;;;12.37;;
19278;SDS011;9773;47.062;15.446;2023-09-12T02:05:29;14.23;;;12.83;;
19278;SDS011;9773;47.062;15.446;2023-09-12T02:07:55;14.40;;;13.17;;
19278;SDS011;9773;47.062;15.446;2023-09-12T02:10:21;13.37;;;12.27;;
19278;SDS011;9773;47.062;15.446;2023-09-12T02:12:47;14.40;;;13.10;;
19278;SDS011;9773;47.062;15.446;2023-09-12T02:15:12;15.30;;;13.53;;
19278;SDS011;9773;47.062;15.446;2023-09-12T02:17:39;15.30;;;13.90;;
19278;SDS011;9773;47.062;15.446;2023-09-12T02:20:08;14.23;;;12.87;;
19278;SDS011;9773;47.062;15.446;2023-09-12T02:22:34;14.90;;;13.70;;
19278;SDS011;9773;47.062;15.446;2023-09-12T02:25:01;14.27;;;13.07;;
19278;SDS011;9773;47.062;15.446;2023-09-12T02:27:28;13.97;;;12.73;;
19278;SDS011;9773;47.062;15.446;2023-09-12T02:29:53;14.93;;;13.63;;
19278;SDS011;9773;47.062;15.446;2023-09-12T02:32:20;14.23;;;12.93;;
19278;SDS011;9773;47.062;15.446;2023-09-12T02:34:46;14.97;;;13.57;;
19278;SDS011;9773;47.062;15.446;2023-09-12T02:37:11;13.90;;;12.67;;
19278;SDS011;9773;47.062;15.446;2023-09-12T02:39:37;14.33;;;13.03;;
19278;SDS011;9773;47.062;15.446;2023-09-12T02:42:03;15.03;;;13.53;;
19278;SDS011;9773;47.062;15.446;2023-09-12T02:44:30;14.33;;;13.03;;
19278;SDS011;9773;47.062;15.446;2023-09-12T02:46:55;14.50;;;13.10;;
19278;SDS011;9773;47.062;15.446;2023-09-12T02:49:21;14.17;;;12.53;;
19278;SDS011;9773;47.062;15.446;2023-09-12T02:51:47;14.70;;;13.23;;
19278;SDS011;9773;47.062;15.446;2023-09-12T02:54:13;16.20;;;13.57;;
19278;SDS011;9773;47.062;15.446;2023-09-12T02:56:39;14.77;;;13.43;;
19278;SDS011;9773;47.062;15.446;2023-09-12T02:59:04;14.93;;;13.57;;
19278;SDS011;9773;47.062;15.446;2023-09-12T03:01:30;15.00;;;13.67;;
19278;SDS011;9773;47.062;15.446;2023-09-12T03:03:57;15.37;;;14.07;;
19278;SDS011;9773;47.062;15.446;2023-09-12T03:06:23;15.67;;;14.27;;
19278;SDS011;9773;47.062;15.446;2023-09-12T03:08:48;15.67;;;13.37;;
19278;SDS011;9773;47.062;15.446;2023-09-12T03:11:15;15.67;;;14.23;;
19278;SDS011;9773;47.062;15.446;2023-09-12T03:13:41;13.93;;;12.73;;
19278;SDS011;9773;47.062;15.446;2023-09-12T03:16:10;14.60;;;13.03;;
19278;SDS011;9773;47.062;15.446;2023-09-12T03:18:37;15.60;;;14.23;;
19278;SDS011;9773;47.062;15.446;2023-09-12T03:21:03;14.60;;;13.30;;
19278;SDS011;9773;47.062;15.446;2023-09-12T03:23:28;15.27;;;13.67;;
19278;SDS011;9773;47.062;15.446;2023-09-12T03:25:54;15.87;;;14.37;;
19278;SDS011;9773;47.062;15.446;2023-09-12T03:28:20;14.33;;;13.03;;
19278;SDS011;9773;47.062;15.446;2023-09-12T03:30:46;15.00;;;13.60;;
19278;SDS011;9773;47.062;15.446;2023-09-12T03:33:12;14.27;;;12.97;;
19278;SDS011;9773;47.062;15.446;2023-09-12T03:35:37;15.50;;;14.07;;
19278;SDS011;9773;47.062;15.446;2023-09-12T03:38:03;15.23;;;13.83;;
19278;SDS011;9773;47.062;15.446;2023-09-12T03:40:29;14.83;;;13.57;;
19278;SDS011;9773;47.062;15.446;2023-09-12T03:42:55;15.93;;;14.17;;
19278;SDS011;9773;47.062;15.446;2023-09-12T03:45:21;15.07;;;13.77;;
19278;SDS011;9773;47.062;15.446;2023-09-12T03:47:48;14.60;;;13.30;;
19278;SDS011;9773;47.062;15.446;2023-09-12T03:50:13;14.57;;;13.27;;
19278;SDS011;9773;47.062;15.446;2023-09-12T03:52:39;14.20;;;13.07;;
19278;SDS011;9773;47.062;15.446;2023-09-12T03:55:05;15.43;;;14.00;;
19278;SDS011;9773;47.062;15.446;2023-09-12T03:57:31;14.97;;;13.57;;
19278;SDS011;9773;47.062;15.446;2023-09-12T03:59:57;15.33;;;13.87;;
19278;SDS011;9773;47.062;15.446;2023-09-12T04:02:22;14.27;;;12.97;;
19278;SDS011;9773;47.062;15.446;2023-09-12T04:04:48;15.87;;;14.33;;
19278;SDS011;9773;47.062;15.446;2023-09-12T04:07:14;15.13;;;13.63;;
19278;SDS011;9773;47.062;15.446;2023-09-12T04:09:40;14.90;;;13.40;;
19278;SDS011;9773;47.062;15.446;2023-09-12T04:12:06;14.83;;;13.53;;
19278;SDS011;9773;47.062;15.446;2023-09-12T04:14:33;14.20;;;12.90;;
19278;SDS011;9773;47.062;15.446;2023-09-12T04:17:00;14.93;;;13.43;;
19278;SDS011;9773;47.062;15.446;2023-09-12T04:19:26;14.20;;;12.80;;
19278;SDS011;9773;47.062;15.446;2023-09-12T04:21:51;14.93;;;13.43;;
19278;SDS011;9773;47.062;15.446;2023-09-12T04:24:17;15.00;;;13.60;;
19278;SDS011;9773;47.062;15.446;2023-09-12T04:26:43;14.07;;;12.77;;
19278;SDS011;9773;47.062;15.446;2023-09-12T04:29:09;15.13;;;13.53;;
19278;SDS011;9773;47.062;15.446;2023-09-12T04:31:35;13.77;;;12.53;;
19278;SDS011;9773;47.062;15.446;2023-09-12T04:34:01;14.20;;;12.87;;
19278;SDS011;9773;47.062;15.446;2023-09-12T04:36:27;13.80;;;12.43;;
19278;SDS011;9773;47.062;15.446;2023-09-12T04:38:53;14.27;;;12.97;;
19278;SDS011;9773;47.062;15.446;2023-09-12T04:41:19;12.93;;;11.73;;
19278;SDS011;9773;47.062;15.446;2023-09-12T04:43:45;12.77;;;11.67;;
19278;SDS011;9773;47.062;15.446;2023-09-12T04:46:11;13.83;;;12.47;;
19278;SDS011;9773;47.062;15.446;2023-09-12T04:48:38;12.90;;;11.77;;
19278;SDS011;9773;47.062;15.446;2023-09-12T04:51:04;13.87;;;12.43;;
19278;SDS011;9773;47.062;15.446;2023-09-12T04:53:30;12.97;;;11.53;;
19278;SDS011;9773;47.062;15.446;2023-09-12T04:56:00;13.23;;;11.93;;
19278;SDS011;9773;47.062;15.446;2023-09-12T04:58:29;13.57;;;12.27;;
19278;SDS011;9773;47.062;15.446;2023-09-12T05:00:55;14.20;;;12.90;;
19278;SDS011;9773;47.062;15.446;2023-09-12T05:03:21;13.53;;;12.30;;
19278;SDS011;9773;47.062;15.446;2023-09-12T05:05:48;15.00;;;12.63;;
19278;SDS011;9773;47.062;15.446;2023-09-12T05:08:15;12.50;;;11.40;;
19278;SDS011;9773;47.062;15.446;2023-09-12T05:10:46;13.77;;;12.47;;
19278;SDS011;9773;47.062;15.446;2023-09-12T05:13:12;13.77;;;11.93;;
19278;SDS011;9773;47.062;15.446;2023-09-12T05:15:39;15.80;;;12.80;;
19278;SDS011;9773;47.062;15.446;2023-09-12T05:18:06;14.23;;;12.50;;
19278;SDS011;9773;47.062;15.446;2023-09-12T05:20:32;14.13;;;12.73;;
19278;SDS011;9773;47.062;15.446;2023-09-12T05:22:59;13.83;;;12.00;;
19278;SDS011;9773;47.062;15.446;2023-09-12T05:25:25;14.20;;;12.80;;
19278;SDS011;9773;47.062;15.446;2023-09-12T05:27:52;14.23;;;12.93;;
19278;SDS011;9773;47.062;15.446;2023-09-12T05:30:18;14.43;;;13.07;;
19278;SDS011;9773;47.062;15.446;2023-09-12T05:32:43;16.43;;;12.80;;
19278;SDS011;9773;47.062;15.446;2023-09-12T05:35:09;13.80;;;12.50;;
19278;SDS011;9773;47.062;15.446;2023-09-12T05:37:35;14.30;;;12.93;;
19278;SDS011;9773;47.062;15.446;2023-09-12T05:40:01;14.83;;;13.33;;
19278;SDS011;9773;47.062;15.446;2023-09-12T05:42:28;15.90;;;13.17;;
19278;SDS011;9773;47.062;15.446;2023-09-12T05:44:53;15.33;;;12.90;;
19278;SDS011;9773;47.062;15.446;2023-09-12T05:47:20;15.33;;;13.77;;
19278;SDS011;9773;47.062;15.446;2023-09-12T05:49:46;14.20;;;12.90;;
19278;SDS011;9773;47.062;15.446;2023-09-12T05:52:12;14.23;;;12.73;;
19278;SDS011;9773;47.062;15.446;2023-09-12T05:54:38;14.97;;;13.43;;
19278;SDS011;9773;47.062;15.446;2023-09-12T05:57:07;14.77;;;12.93;;
19278;SDS011;9773;47.062;15.446;2023-09-12T06:02:01;16.60;;;13.80;;
19278;SDS011;9773;47.062;15.446;2023-09-12T06:04:27;15.10;;;13.37;;
19278;SDS011;9773;47.062;15.446;2023-09-12T06:06:53;15.30;;;13.70;;
19278;SDS011;9773;47.062;15.446;2023-09-12T06:09:19;15.47;;;13.93;;
19278;SDS011;9773;47.062;15.446;2023-09-12T06:11:44;15.63;;;13.73;;
19278;SDS011;9773;47.062;15.446;2023-09-12T06:14:10;15.97;;;13.73;;
19278;SDS011;9773;47.062;15.446;2023-09-12T06:16:36;15.30;;;13.77;;
19278;SDS011;9773;47.062;15.446;2023-09-12T06:19:02;16.97;;;13.60;;
19278;SDS011;9773;47.062;15.446;2023-09-12T06:21:27;18.80;;;14.03;;
19278;SDS011;9773;47.062;15.446;2023-09-12T06:26:49;15.50;;;13.70;;
19278;SDS011;9773;47.062;15.446;2023-09-12T06:29:15;11.63;;;10.30;;
19278;SDS011;9773;47.062;15.446;2023-09-12T06:31:40;12.80;;;9.60;;
19278;SDS011;9773;47.062;15.446;2023-09-12T06:34:07;10.47;;;9.37;;
19278;SDS011;9773;47.062;15.446;2023-09-12T06:36:33;11.00;;;9.90;;
19278;SDS011;9773;47.062;15.446;2023-09-12T06:38:59;10.57;;;9.43;;
19278;SDS011;9773;47.062;15.446;2023-09-12T06:41:26;11.17;;;9.43;;
19278;SDS011;9773;47.062;15.446;2023-09-12T06:43:52;10.63;;;9.17;;
19278;SDS011;9773;47.062;15.446;2023-09-12T06:46:18;10.10;;;9.03;;
19278;SDS011;9773;47.062;15.446;2023-09-12T06:48:45;12.17;;;9.70;;
19278;SDS011;9773;47.062;15.446;2023-09-12T06:51:11;10.83;;;9.60;;
19278;SDS011;9773;47.062;15.446;2023-09-12T06:53:38;10.50;;;9.33;;
19278;SDS011;9773;47.062;15.446;2023-09-12T06:56:04;15.57;;;9.77;;
19278;SDS011;9773;47.062;15.446;2023-09-12T06:58:30;10.87;;;9.17;;
19278;SDS011;9773;47.062;15.446;2023-09-12T07:01:03;11.50;;;8.77;;
19278;SDS011;9773;47.062;15.446;2023-09-12T07:03:31;12.50;;;9.47;;
19278;SDS011;9773;47.062;15.446;2023-09-12T07:05:57;10.40;;;9.30;;
19278;SDS011;9773;47.062;15.446;2023-09-12T07:08:23;13.43;;;8.80;;
19278;SDS011;9773;47.062;15.446;2023-09-12T07:10:49;10.87;;;9.10;;
19278;SDS011;9773;47.062;15.446;2023-09-12T07:13:15;11.33;;;9.20;;
19278;SDS011;9773;47.062;15.446;2023-09-12T07:15:41;10.43;;;9.47;;
19278;SDS011;9773;47.062;15.446;2023-09-12T07:18:07;10.20;;;9.30;;
19278;SDS011;9773;47.062;15.446;2023-09-12T07:20:33;11.10;;;9.50;;
19278;SDS011;9773;47.062;15.446;2023-09-12T07:22:59;10.80;;;9.53;;
19278;SDS011;9773;47.062;15.446;2023-09-12T07:25:25;9.90;;;8.90;;
19278;SDS011;9773;47.062;15.446;2023-09-12T07:27:51;15.70;;;9.33;;
19278;SDS011;9773;47.062;15.446;2023-09-12T07:30:17;11.83;;;10.57;;
19278;SDS011;9773;47.062;15.446;2023-09-12T07:32:44;14.17;;;12.37;;
19278;SDS011;9773;47.062;15.446;2023-09-12T07:35:10;14.17;;;11.70;;
19278;SDS011;9773;47.062;15.446;2023-09-12T07:37:36;21.60;;;13.60;;
19278;SDS011;9773;47.062;15.446;2023-09-12T07:40:02;21.50;;;12.70;;
19278;SDS011;9773;47.062;15.446;2023-09-12T07:42:35;19.03;;;13.57;;
19278;SDS011;9773;47.062;15.446;2023-09-12T07:45:04;14.50;;;12.90;;
19278;SDS011;9773;47.062;15.446;2023-09-12T07:47:30;13.77;;;11.80;;
19278;SDS011;9773;47.062;15.446;2023-09-12T07:49:57;16.77;;;13.03;;
19278;SDS011;9773;47.062;15.446;2023-09-12T07:52:25;20.20;;;13.00;;
19278;SDS011;9773;47.062;15.446;2023-09-12T07:54:51;16.70;;;13.03;;
19278;SDS011;9773;47.062;15.446;2023-09-12T07:57:22;14.40;;;12.20;;
19278;SDS011;9773;47.062;15.446;2023-09-12T07:59:48;16.40;;;13.00;;
19278;SDS011;9773;47.062;15.446;2023-09-12T08:02:14;14.60;;;12.23;;
19278;SDS011;9773;47.062;15.446;2023-09-12T08:04:40;18.47;;;12.40;;
19278;SDS011;9773;47.062;15.446;2023-09-12T08:07:06;14.23;;;11.60;;
19278;SDS011;9773;47.062;15.446;2023-09-12T08:09:51;15.90;;;12.00;;
19278;SDS011;9773;47.062;15.446;2023-09-12T08:12:22;12.47;;;11.27;;
19278;SDS011;9773;47.062;15.446;2023-09-12T08:14:50;13.43;;;11.40;;
19278;SDS011;9773;47.062;15.446;2023-09-12T08:17:16;18.30;;;11.13;;
19278;SDS011;9773;47.062;15.446;2023-09-12T08:19:42;12.17;;;10.87;;
19278;SDS011;9773;47.062;15.446;2023-09-12T08:22:09;15.73;;;11.73;;
19278;SDS011;9773;47.062;15.446;2023-09-12T08:24:36;13.13;;;10.83;;
19278;SDS011;9773;47.062;15.446;2023-09-12T08:27:02;11.57;;;10.57;;
19278;SDS011;9773;47.062;15.446;2023-09-12T08:29:29;11.03;;;9.77;;
19278;SDS011;9773;47.062;15.446;2023-09-12T08:31:55;10.75;;;9.52;;
19278;SDS011;9773;47.062;15.446;2023-09-12T08:34:21;13.77;;;9.85;;
19278;SDS011;9773;47.062;15.446;2023-09-12T08:36:47;10.30;;;9.40;;
19278;SDS011;9773;47.062;15.446;2023-09-12T08:39:14;11.73;;;10.53;;
19278;SDS011;9773;47.062;15.446;2023-09-12T08:41:41;10.40;;;9.30;;
19278;SDS011;9773;47.062;15.446;2023-09-12T08:44:07;11.33;;;10.23;;
19278;SDS011;9773;47.062;15.446;2023-09-12T08:46:34;11.60;;;10.20;;
19278;SDS011;9773;47.062;15.446;2023-09-12T08:49:02;10.77;;;9.80;;
19278;SDS011;9773;47.062;15.446;2023-09-12T08:51:29;11.65;;;9.68;;
19278;SDS011;9773;47.062;15.446;2023-09-12T08:53:57;10.83;;;9.83;;
19278;SDS011;9773;47.062;15.446;2023-09-12T08:56:23;10.52;;;9.57;;
19278;SDS011;9773;47.062;15.446;2023-09-12T08:58:49;10.25;;;9.35;;
19278;SDS011;9773;47.062;15.446;2023-09-12T09:01:17;10.80;;;9.57;;
19278;SDS011;9773;47.062;15.446;2023-09-12T09:03:44;11.07;;;9.57;;
19278;SDS011;9773;47.062;15.446;2023-09-12T09:06:12;10.15;;;9.18;;
19278;SDS011;9773;47.062;15.446;2023-09-12T09:08:39;9.77;;;8.88;;
19278;SDS011;9773;47.062;15.446;2023-09-12T09:11:07;9.95;;;9.02;;
19278;SDS011;9773;47.062;15.446;2023-09-12T09:13:35;10.27;;;9.25;;
19278;SDS011;9773;47.062;15.446;2023-09-12T09:16:11;12.98;;;9.50;;
19278;SDS011;9773;47.062;15.446;2023-09-12T09:21:38;10.55;;;9.63;;
19278;SDS011;9773;47.062;15.446;2023-09-12T09:24:09;10.73;;;9.65;;
19278;SDS011;9773;47.062;15.446;2023-09-12T09:26:46;9.95;;;8.95;;
19278;SDS011;9773;47.062;15.446;2023-09-12T09:29:16;10.68;;;9.70;;
19278;SDS011;9773;47.062;15.446;2023-09-12T09:31:44;10.85;;;8.88;;
19278;SDS011;9773;47.062;15.446;2023-09-12T09:34:14;10.35;;;9.45;;
19278;SDS011;9773;47.062;15.446;2023-09-12T09:36:47;14.00;;;9.35;;
19278;SDS011;9773;47.062;15.446;2023-09-12T09:39:24;10.60;;;9.07;;
19278;SDS011;9773;47.062;15.446;2023-09-12T09:41:52;9.45;;;8.65;;
19278;SDS011;9773;47.062;15.446;2023-09-12T09:44:20;10.75;;;9.65;;
19278;SDS011;9773;47.062;15.446;2023-09-12T09:46:50;13.77;;;9.48;;
19278;SDS011;9773;47.062;15.446;2023-09-12T09:49:19;9.70;;;8.70;;
19278;SDS011;9773;47.062;15.446;2023-09-12T09:51:46;10.13;;;9.23;;
19278;SDS011;9773;47.062;15.446;2023-09-12T09:54:12;11.48;;;9.30;;
19278;SDS011;9773;47.062;15.446;2023-09-12T09:56:48;10.70;;;9.77;;
19278;SDS011;9773;47.062;15.446;2023-09-12T09:59:18;10.75;;;8.82;;
19278;SDS011;9773;47.062;15.446;2023-09-12T10:01:49;10.82;;;9.88;;
19278;SDS011;9773;47.062;15.446;2023-09-12T10:04:18;11.05;;;9.45;;
19278;SDS011;9773;47.062;15.446;2023-09-12T10:06:45;10.63;;;9.73;;
19278;SDS011;9773;47.062;15.446;2023-09-12T10:09:12;9.80;;;8.90;;
19278;SDS011;9773;47.062;15.446;2023-09-12T10:11:39;11.10;;;10.00;;
19278;SDS011;9773;47.062;15.446;2023-09-12T10:14:06;9.50;;;8.73;;
19278;SDS011;9773;47.062;15.446;2023-09-12T10:16:34;11.27;;;10.18;;
19278;SDS011;9773;47.062;15.446;2023-09-12T10:21:50;11.35;;;10.18;;
19278;SDS011;9773;47.062;15.446;2023-09-12T10:24:22;11.15;;;9.75;;
19278;SDS011;9773;47.062;15.446;2023-09-12T10:26:50;10.07;;;9.15;;
19278;SDS011;9773;47.062;15.446;2023-09-12T10:29:18;10.70;;;9.80;;
19278;SDS011;9773;47.062;15.446;2023-09-12T10:31:44;10.68;;;9.63;;
19278;SDS011;9773;47.062;15.446;2023-09-12T10:34:11;10.25;;;9.38;;
19278;SDS011;9773;47.062;15.446;2023-09-12T10:36:40;9.95;;;9.02;;
19278;SDS011;9773;47.062;15.446;2023-09-12T10:39:08;11.07;;;9.77;;
19278;SDS011;9773;47.062;15.446;2023-09-12T10:41:44;11.13;;;9.98;;
19278;SDS011;9773;47.062;15.446;2023-09-12T10:44:15;11.45;;;10.27;;
19278;SDS011;9773;47.062;15.446;2023-09-12T10:46:43;12.20;;;10.30;;
19278;SDS011;9773;47.062;15.446;2023-09-12T10:49:11;9.93;;;9.02;;
19278;SDS011;9773;47.062;15.446;2023-09-12T10:51:38;10.23;;;9.18;;
19278;SDS011;9773;47.062;15.446;2023-09-12T10:54:09;10.40;;;9.43;;
19278;SDS011;9773;47.062;15.446;2023-09-12T10:56:47;9.82;;;8.93;;
19278;SDS011;9773;47.062;15.446;2023-09-12T10:59:31;11.00;;;9.90;;
19278;SDS011;9773;47.062;15.446;2023-09-12T11:05:00;10.93;;;9.85;;
19278;SDS011;9773;47.062;15.446;2023-09-12T11:12:41;10.77;;;9.05;;
19278;SDS011;9773;47.062;15.446;2023-09-12T11:15:08;10.23;;;9.43;;
19278;SDS011;9773;47.062;15.446;2023-09-12T11:17:41;10.02;;;9.07;;
19278;SDS011;9773;47.062;15.446;2023-09-12T11:20:48;10.90;;;9.60;;
19278;SDS011;9773;47.062;15.446;2023-09-12T11:23:18;10.50;;;9.50;;
19278;SDS011;9773;47.062;15.446;2023-09-12T11:25:44;10.27;;;9.27;;
19278;SDS011;9773;47.062;15.446;2023-09-12T11:28:10;10.15;;;9.32;;
19278;SDS011;9773;47.062;15.446;2023-09-12T11:30:36;11.05;;;10.02;;
19278;SDS011;9773;47.062;15.446;2023-09-12T11:33:19;10.25;;;9.30;;
19278;SDS011;9773;47.062;15.446;2023-09-12T11:35:46;11.63;;;10.50;;
19278;SDS011;9773;47.062;15.446;2023-09-12T11:38:28;11.68;;;10.63;;
19278;SDS011;9773;47.062;15.446;2023-09-12T11:40:56;10.68;;;9.68;;
19278;SDS011;9773;47.062;15.446;2023-09-12T11:43:24;11.60;;;10.23;;
19278;SDS011;9773;47.062;15.446;2023-09-12T11:45:51;10.80;;;9.88;;
19278;SDS011;9773;47.062;15.446;2023-09-12T11:48:17;10.80;;;10.00;;
19278;SDS011;9773;47.062;15.446;2023-09-12T11:50:48;15.23;;;9.85;;
19278;SDS011;9773;47.062;15.446;2023-09-12T11:53:20;10.57;;;9.68;;
19278;SDS011;9773;47.062;15.446;2023-09-12T11:55:48;10.43;;;9.63;;
19278;SDS011;9773;47.062;15.446;2023-09-12T11:58:18;11.27;;;9.63;;
19278;SDS011;9773;47.062;15.446;2023-09-12T12:00:45;10.68;;;9.60;;
19278;SDS011;9773;47.062;15.446;2023-09-12T12:03:14;11.10;;;10.10;;
19278;SDS011;9773;47.062;15.446;2023-09-12T12:05:40;10.50;;;9.70;;
19278;SDS011;9773;47.062;15.446;2023-09-12T12:08:10;10.98;;;9.80;;
19278;SDS011;9773;47.062;15.446;2023-09-12T12:10:36;10.93;;;9.93;;
19278;SDS011;9773;47.062;15.446;2023-09-12T12:13:04;10.30;;;9.25;;
19278;SDS011;9773;47.062;15.446;2023-09-12T12:15:31;9.73;;;9.00;;
19278;SDS011;9773;47.062;15.446;2023-09-12T12:17:57;9.63;;;8.82;;
19278;SDS011;9773;47.062;15.446;2023-09-12T12:20:23;11.52;;;9.40;;
19278;SDS011;9773;47.062;15.446;2023-09-12T12:22:49;9.75;;;8.85;;
19278;SDS011;9773;47.062;15.446;2023-09-12T12:25:17;8.90;;;8.00;;
19278;SDS011;9773;47.062;15.446;2023-09-12T12:27:43;10.25;;;9.35;;
19278;SDS011;9773;47.062;15.446;2023-09-12T12:30:10;9.90;;;9.05;;
19278;SDS011;9773;47.062;15.446;2023-09-12T12:32:44;10.10;;;9.00;;
19278;SDS011;9773;47.062;15.446;2023-09-12T12:35:18;10.13;;;9.10;;
19278;SDS011;9773;47.062;15.446;2023-09-12T12:37:44;9.63;;;8.85;;
19278;SDS011;9773;47.062;15.446;2023-09-12T12:40:13;11.15;;;10.07;;
19278;SDS011;9773;47.062;15.446;2023-09-12T12:42:40;10.30;;;9.32;;
19278;SDS011;9773;47.062;15.446;2023-09-12T12:45:18;10.05;;;9.15;;
19278;SDS011;9773;47.062;15.446;2023-09-12T12:47:45;9.88;;;8.98;;
19278;SDS011;9773;47.062;15.446;2023-09-12T12:50:14;9.90;;;9.07;;
19278;SDS011;9773;47.062;15.446;2023-09-12T12:52:41;9.23;;;8.43;;
19278;SDS011;9773;47.062;15.446;2023-09-12T12:55:08;9.65;;;8.75;;
19278;SDS011;9773;47.062;15.446;2023-09-12T12:57:39;9.27;;;8.38;;
19278;SDS011;9773;47.062;15.446;2023-09-12T13:00:06;9.48;;;8.68;;
19278;SDS011;9773;47.062;15.446;2023-09-12T13:02:43;9.73;;;8.82;;
19278;SDS011;9773;47.062;15.446;2023-09-12T13:05:25;9.38;;;8.57;;
19278;SDS011;9773;47.062;15.446;2023-09-12T13:07:55;10.13;;;8.95;;
19278;SDS011;9773;47.062;15.446;2023-09-12T13:10:21;8.95;;;8.20;;
19278;SDS011;9773;47.062;15.446;2023-09-12T13:12:48;9.60;;;8.90;;
19278;SDS011;9773;47.062;15.446;2023-09-12T13:15:15;9.13;;;8.40;;
19278;SDS011;9773;47.062;15.446;2023-09-12T13:17:42;9.90;;;8.95;;
19278;SDS011;9773;47.062;15.446;2023-09-12T13:20:09;9.60;;;8.68;;
19278;SDS011;9773;47.062;15.446;2023-09-12T13:22:36;8.98;;;8.13;;
19278;SDS011;9773;47.062;15.446;2023-09-12T13:25:02;12.07;;;8.60;;
19278;SDS011;9773;47.062;15.446;2023-09-12T13:27:29;9.70;;;8.90;;
19278;SDS011;9773;47.062;15.446;2023-09-12T13:30:01;8.82;;;8.13;;
19278;SDS011;9773;47.062;15.446;2023-09-12T13:32:28;9.38;;;8.68;;
19278;SDS011;9773;47.062;15.446;2023-09-12T13:34:54;8.82;;;8.15;;
19278;SDS011;9773;47.062;15.446;2023-09-12T13:37:20;11.13;;;8.40;;
19278;SDS011;9773;47.062;15.446;2023-09-12T13:39:46;9.10;;;8.40;;
19278;SDS011;9773;47.062;15.446;2023-09-12T13:42:17;8.73;;;8.00;;
19278;SDS011;9773;47.062;15.446;2023-09-12T13:44:49;8.65;;;7.75;;
19278;SDS011;9773;47.062;15.446;2023-09-12T13:47:15;9.23;;;8.07;;
19278;SDS011;9773;47.062;15.446;2023-09-12T13:49:50;8.98;;;8.07;;
19278;SDS011;9773;47.062;15.446;2023-09-12T13:52:19;9.88;;;8.55;;
19278;SDS011;9773;47.062;15.446;2023-09-12T13:54:45;9.23;;;8.13;;
19278;SDS011;9773;47.062;15.446;2023-09-12T13:57:11;9.30;;;8.50;;
19278;SDS011;9773;47.062;15.446;2023-09-12T13:59:37;8.80;;;7.72;;
19278;SDS011;9773;47.062;15.446;2023-09-12T14:02:03;10.18;;;9.07;;
19278;SDS011;9773;47.062;15.446;2023-09-12T14:04:29;9.32;;;8.45;;
19278;SDS011;9773;47.062;15.446;2023-09-12T14:06:55;10.38;;;9.38;;
19278;SDS011;9773;47.062;15.446;2023-09-12T14:09:21;10.38;;;9.38;;
19278;SDS011;9773;47.062;15.446;2023-09-12T14:11:47;9.40;;;8.55;;
19278;SDS011;9773;47.062;15.446;2023-09-12T14:14:13;9.20;;;8.40;;
19278;SDS011;9773;47.062;15.446;2023-09-12T14:16:39;9.15;;;8.38;;
19278;SDS011;9773;47.062;15.446;2023-09-12T14:19:05;8.77;;;7.88;;
19278;SDS011;9773;47.062;15.446;2023-09-12T14:21:31;9.23;;;8.35;;
19278;SDS011;9773;47.062;15.446;2023-09-12T14:23:57;9.10;;;8.20;;
19278;SDS011;9773;47.062;15.446;2023-09-12T14:26:23;8.30;;;7.50;;
19278;SDS011;9773;47.062;15.446;2023-09-12T14:28:49;8.65;;;7.28;;
19278;SDS011;9773;47.062;15.446;2023-09-12T14:31:15;8.23;;;7.38;;
19278;SDS011;9773;47.062;15.446;2023-09-12T14:33:42;12.75;;;8.02;;
19278;SDS011;9773;47.062;15.446;2023-09-12T14:36:09;8.52;;;7.85;;
19278;SDS011;9773;47.062;15.446;2023-09-12T14:38:35;8.50;;;7.70;;
19278;SDS011;9773;47.062;15.446;2023-09-12T14:41:01;8.27;;;7.47;;
19278;SDS011;9773;47.062;15.446;2023-09-12T14:43:28;7.75;;;7.15;;
19278;SDS011;9773;47.062;15.446;2023-09-12T14:45:54;9.48;;;7.70;;
19278;SDS011;9773;47.062;15.446;2023-09-12T14:48:20;8.30;;;7.55;;
19278;SDS011;9773;47.062;15.446;2023-09-12T14:50:47;8.15;;;7.38;;
19278;SDS011;9773;47.062;15.446;2023-09-12T14:53:16;9.15;;;8.27;;
19278;SDS011;9773;47.062;15.446;2023-09-12T14:55:43;9.68;;;8.68;;
19278;SDS011;9773;47.062;15.446;2023-09-12T14:58:09;9.40;;;8.60;;